Airfield :
LOGIN :

Register | Disclaimer

   EN    FR    IT 

 










Legend :    VFR   Marginal VFR   IFR   Intensive IFR   Very Intensive IFR
Visi :
Ceiling :
>= 8 km
>= 3000ft
5 to 8 km
1000 to 3000 ft
1500m to 5 km
500 to 1000 ft
800 to 1500m
200 to 500 ft
< 800m
< 200 ft
Symbols :   Thunderstorms  Fog  Heavy snow  Heavy precipitations  Wind > 20 kt
SIGMETs :     Misc.  Thunderstorms  Icing  Turbulence  Mountain Waves  Volcanic Ashes







- Airport Elevation : 791 ft
- IATA code : KRK


EPKK - Krakow-Balice

CURRENT METAR :
  • 262030Z 28015KT 9999 -SHRA FEW009 SCT019 BKN022CB 04/00 Q1021

EXPIRED METARs :
  • 262000Z 29020KT 9999 FEW008 SCT025CB BKN030 05/00 Q1020
  • 261930Z 27011KT 9999 FEW025CB BKN035 05/M02 Q1019
  • 261900Z 25014KT 9999 SCT038CB BKN042 06/M03 Q1019
  • 261830Z 27015KT 9999 SCT040TCU BKN056 06/M03 Q1019
  • 261800Z 26016KT 230V290 9999 BKN046 06/M04 Q1019

TAF TAF EPKK
Valid from the 26 at 21:00 until the 27 at 21:00 UTC


262030Z 2621/2721 27018KT 9999 BKN033
BECMG 2621/2623 27008KT
TEMPO 2621/2622 4000 SHRA SHSNRA BKN008 BKN016CB
No reported NOTAMs for that airfield.



MET'MAP, your aeronautical weather chart ! - Copyright ORBIFLY December 2007 - Disclaimer

ORBIFLY MET'MAP TEAM :

Programming & Development : Alexandra Zaïnal
Concept & Development : Baudouin d'Aumeries
Co-Development & Prog : Marc-Olivier Méhu
Technical & hardware support : Manuel Goepfert

Contact : metmap@orbifly.com




SOURCES & CREDITS :

   NOAA